createdAt,value
2022-10-26T00:01:07.160Z,46.70
2022-10-26T00:03:35.673Z,46.80
2022-10-26T00:06:07.094Z,46.97
2022-10-26T00:08:35.187Z,47.03
2022-10-26T00:11:03.255Z,46.70
2022-10-26T00:13:31.275Z,46.90
2022-10-26T00:18:28.646Z,46.77
2022-10-26T00:20:56.396Z,46.73
2022-10-26T00:23:25.544Z,46.70
2022-10-26T00:25:57.021Z,46.90
2022-10-26T00:28:25.361Z,47.33
2022-10-26T00:30:53.389Z,46.63
2022-10-26T00:33:21.233Z,46.73
2022-10-26T00:35:49.933Z,47.07
2022-10-26T00:38:17.720Z,46.90
2022-10-26T00:40:47.377Z,46.70
2022-10-26T00:43:17.842Z,46.70
2022-10-26T00:45:46.444Z,46.87
2022-10-26T00:48:21.699Z,46.47
2022-10-26T00:50:49.646Z,46.87
2022-10-26T00:53:18.267Z,46.47
2022-10-26T00:55:50.647Z,46.43
2022-10-26T00:58:19.435Z,46.47
2022-10-26T01:00:47.991Z,46.70
2022-10-26T01:03:16.629Z,46.43
2022-10-26T01:05:47.199Z,46.67
2022-10-26T01:08:16.953Z,46.80
2022-10-26T01:10:45.098Z,46.80
2022-10-26T01:13:15.183Z,46.50
2022-10-26T01:15:52.264Z,46.87
2022-10-26T01:18:28.163Z,46.83
2022-10-26T01:21:27.038Z,46.83
2022-10-26T01:24:19.782Z,46.70
2022-10-26T01:27:08.950Z,46.80
2022-10-26T01:30:03.056Z,46.70
2022-10-26T01:32:36.608Z,46.83
2022-10-26T01:35:10.068Z,46.90
2022-10-26T01:37:41.929Z,46.40
2022-10-26T01:40:17.039Z,46.67
2022-10-26T01:42:51.603Z,46.63
2022-10-26T01:45:20.240Z,46.40
2022-10-26T01:47:50.506Z,46.67
2022-10-26T01:50:20.742Z,46.77
2022-10-26T01:52:50.823Z,47.03
2022-10-26T01:55:47.564Z,46.60
2022-10-26T01:58:39.464Z,47.00
2022-10-26T02:01:15.991Z,46.70
2022-10-26T02:03:50.790Z,46.90
2022-10-26T02:06:24.039Z,47.00
2022-10-26T02:09:03.448Z,46.77
2022-10-26T02:11:40.291Z,46.70
2022-10-26T02:16:56.008Z,46.47
2022-10-26T02:19:33.956Z,46.70
2022-10-26T02:22:06.924Z,47.00
2022-10-26T02:24:37.364Z,46.67
2022-10-26T02:27:09.184Z,47.00
2022-10-26T02:29:38.732Z,46.83
2022-10-26T02:32:07.807Z,46.90
2022-10-26T02:34:40.336Z,46.87
2022-10-26T02:37:09.388Z,46.73
2022-10-26T02:39:39.804Z,46.97
2022-10-26T02:42:09.679Z,46.73
2022-10-26T02:44:42.838Z,46.67
2022-10-26T02:47:11.078Z,46.83
2022-10-26T02:49:40.537Z,46.90
2022-10-26T02:52:16.348Z,47.03
2022-10-26T02:54:53.579Z,46.97
2022-10-26T02:57:25.883Z,46.90
2022-10-26T02:59:54.980Z,46.80
2022-10-26T03:02:23.973Z,46.77
2022-10-26T03:04:54.106Z,46.67
2022-10-26T03:07:22.895Z,46.47
2022-10-26T03:09:50.948Z,46.90
2022-10-26T03:12:18.864Z,46.77
2022-10-26T03:14:46.758Z,46.93
2022-10-26T03:17:14.543Z,46.67
2022-10-26T03:19:42.372Z,47.20
2022-10-26T03:22:11.712Z,46.80
2022-10-26T03:24:39.502Z,46.67
2022-10-26T03:27:07.282Z,46.73
2022-10-26T03:29:35.068Z,46.83
2022-10-26T03:32:02.842Z,47.10
2022-10-26T03:34:30.591Z,46.67
2022-10-26T03:36:58.404Z,47.00
2022-10-26T03:39:27.524Z,46.83
2022-10-26T03:41:56.254Z,47.17
2022-10-26T03:44:24.127Z,46.80
2022-10-26T03:46:51.891Z,47.03
2022-10-26T03:49:19.821Z,47.07
2022-10-26T03:51:47.564Z,47.20
2022-10-26T03:54:15.332Z,47.17
2022-10-26T03:56:44.461Z,47.00
2022-10-26T03:59:12.255Z,47.17
2022-10-26T04:01:40.245Z,47.00
2022-10-26T04:04:08.284Z,47.10
2022-10-26T04:06:36.146Z,47.40
2022-10-26T04:09:04.101Z,47.37
2022-10-26T04:11:31.894Z,47.33
2022-10-26T04:14:01.122Z,46.70
2022-10-26T04:16:32.502Z,47.70
2022-10-26T04:19:01.425Z,47.13
2022-10-26T04:21:29.227Z,46.97
2022-10-26T04:23:57.008Z,47.30
2022-10-26T04:26:24.855Z,47.77
2022-10-26T04:28:52.633Z,47.50
2022-10-26T04:31:21.759Z,47.23
2022-10-26T04:33:49.511Z,47.33
2022-10-26T04:36:17.285Z,46.73
2022-10-26T04:38:45.086Z,47.17
2022-10-26T04:41:12.868Z,47.37
2022-10-26T04:43:40.626Z,47.27
2022-10-26T04:46:09.648Z,47.83
2022-10-26T04:48:39.538Z,47.57
2022-10-26T04:51:07.312Z,47.37
2022-10-26T04:53:35.130Z,47.50
2022-10-26T04:56:03.238Z,47.67
2022-10-26T04:58:31.158Z,47.60
2022-10-26T05:00:58.985Z,47.80
2022-10-26T05:03:26.764Z,47.63
2022-10-26T05:05:59.766Z,47.90
2022-10-26T05:08:29.624Z,47.83
2022-10-26T05:10:57.572Z,47.60
2022-10-26T05:15:58.052Z,47.47
2022-10-26T05:18:26.280Z,47.60
2022-10-26T05:20:55.768Z,47.47
2022-10-26T05:23:24.055Z,47.53
2022-10-26T05:25:52.086Z,47.13
2022-10-26T05:28:19.971Z,47.40
2022-10-26T05:30:48.056Z,47.47
2022-10-26T05:33:16.388Z,47.73
2022-10-26T05:35:44.274Z,47.57
2022-10-26T05:38:16.508Z,47.33
2022-10-26T05:40:51.326Z,47.70
2022-10-26T05:43:19.665Z,47.27
2022-10-26T05:45:47.493Z,47.80
2022-10-26T05:48:15.260Z,47.60
2022-10-26T05:50:43.085Z,47.50
2022-10-26T05:53:10.851Z,47.40
2022-10-26T05:55:40.694Z,47.50
2022-10-26T05:58:11.908Z,47.43
2022-10-26T06:00:48.584Z,47.37
2022-10-26T06:03:28.474Z,47.53
2022-10-26T06:05:57.974Z,47.27
2022-10-26T06:08:29.010Z,47.00
2022-10-26T06:11:00.267Z,46.70
2022-10-26T06:13:28.500Z,47.00
2022-10-26T06:16:21.921Z,46.93
2022-10-26T06:18:59.662Z,46.27
2022-10-26T06:21:42.594Z,46.60
2022-10-26T06:24:16.596Z,46.60
2022-10-26T06:26:54.384Z,46.77
2022-10-26T06:29:32.924Z,46.63
2022-10-26T06:32:00.734Z,46.50
2022-10-26T06:34:33.543Z,46.50
2022-10-26T06:37:02.820Z,46.43
2022-10-26T06:39:36.344Z,46.17
2022-10-26T06:42:06.390Z,46.40
2022-10-26T06:44:35.270Z,46.70
2022-10-26T06:47:08.093Z,46.47
2022-10-26T06:49:39.184Z,46.37
2022-10-26T06:52:16.818Z,46.47
2022-10-26T06:54:49.198Z,46.73
2022-10-26T06:57:19.851Z,46.10
2022-10-26T06:59:52.024Z,46.47
2022-10-26T07:02:20.473Z,46.40
2022-10-26T07:04:48.749Z,46.47
2022-10-26T07:07:19.698Z,46.40
2022-10-26T07:09:47.565Z,46.70
2022-10-26T07:12:15.340Z,46.37
2022-10-26T07:14:44.538Z,46.40
2022-10-26T07:17:12.511Z,46.37
2022-10-26T07:19:40.636Z,46.60
2022-10-26T07:22:08.409Z,46.37
2022-10-26T07:24:36.187Z,46.57
2022-10-26T07:27:04.030Z,46.57
2022-10-26T07:29:31.845Z,46.70
2022-10-26T07:32:00.978Z,46.23
2022-10-26T07:34:28.735Z,46.33
2022-10-26T07:36:56.496Z,46.60
2022-10-26T07:39:24.417Z,46.20
2022-10-26T07:41:52.320Z,46.67
2022-10-26T07:44:20.268Z,47.07
2022-10-26T07:46:48.030Z,46.70
2022-10-26T07:49:19.403Z,46.87
2022-10-26T07:51:47.698Z,46.47
2022-10-26T07:54:15.624Z,46.67
2022-10-26T07:56:43.388Z,46.57
2022-10-26T07:59:12.937Z,46.70
2022-10-26T08:01:40.764Z,46.43
2022-10-26T08:04:08.571Z,46.77
2022-10-26T08:06:38.086Z,46.40
2022-10-26T08:09:06.024Z,46.80
2022-10-26T08:11:36.844Z,46.67
2022-10-26T08:14:05.103Z,46.80
2022-10-26T08:16:34.721Z,46.87
2022-10-26T08:19:02.534Z,46.97
2022-10-26T08:21:40.216Z,46.53
2022-10-26T08:24:10.340Z,46.83
2022-10-26T08:26:38.094Z,46.97
2022-10-26T08:29:05.882Z,47.03
2022-10-26T08:31:33.982Z,46.80
2022-10-26T08:34:01.831Z,47.03
2022-10-26T08:36:29.836Z,47.23
2022-10-26T08:38:57.669Z,47.17
2022-10-26T08:41:35.899Z,47.50
2022-10-26T08:44:12.970Z,47.50
2022-10-26T08:46:45.907Z,47.60
2022-10-26T08:49:21.143Z,47.87
2022-10-26T08:51:52.615Z,47.73
2022-10-26T08:54:28.225Z,48.67
2022-10-26T08:57:01.825Z,48.20
2022-10-26T08:59:36.791Z,48.47
2022-10-26T09:02:09.962Z,48.37
2022-10-26T09:04:38.083Z,48.50
2022-10-26T09:07:13.558Z,48.47
2022-10-26T09:09:48.884Z,48.43
2022-10-26T09:12:24.686Z,48.23
2022-10-26T09:15:04.203Z,48.47
2022-10-26T09:17:41.892Z,48.43
2022-10-26T09:20:35.672Z,48.13
2022-10-26T09:23:14.632Z,48.40
2022-10-26T09:25:43.775Z,48.17
2022-10-26T09:28:18.156Z,48.27
2022-10-26T09:30:47.145Z,48.47
2022-10-26T09:33:18.283Z,48.07
2022-10-26T09:35:51.316Z,48.27
2022-10-26T09:38:30.994Z,48.17
2022-10-26T09:41:03.580Z,48.23
2022-10-26T09:43:39.319Z,48.23
2022-10-26T09:46:07.168Z,48.20
2022-10-26T09:48:39.014Z,48.53
2022-10-26T09:51:07.032Z,48.70
2022-10-26T09:53:35.103Z,48.10
2022-10-26T09:56:06.898Z,48.57
2022-10-26T09:58:42.493Z,47.87
2022-10-26T10:01:22.732Z,48.17
2022-10-26T10:04:11.698Z,48.17
2022-10-26T10:06:39.858Z,48.23
2022-10-26T10:09:11.058Z,48.50
2022-10-26T10:11:40.255Z,48.20
2022-10-26T10:14:14.861Z,48.57
2022-10-26T10:16:50.260Z,48.13
2022-10-26T10:19:25.080Z,48.47
2022-10-26T10:21:55.872Z,48.27
2022-10-26T10:24:26.436Z,48.27
2022-10-26T10:26:58.907Z,48.43
2022-10-26T10:29:29.263Z,48.10
2022-10-26T10:31:58.359Z,48.07
2022-10-26T10:34:26.153Z,48.73
2022-10-26T10:36:55.507Z,48.53
2022-10-26T10:39:39.587Z,48.57
2022-10-26T10:42:17.285Z,48.40
2022-10-26T10:44:48.095Z,48.50
2022-10-26T10:47:23.160Z,48.53
2022-10-26T10:49:57.091Z,48.30
2022-10-26T10:52:28.191Z,48.67
2022-10-26T10:55:11.677Z,48.67
2022-10-26T10:57:52.392Z,48.07
2022-10-26T11:00:26.015Z,48.17
2022-10-26T11:03:16.686Z,48.43
2022-10-26T11:06:09.321Z,48.20
2022-10-26T11:08:43.878Z,48.40
2022-10-26T11:11:14.064Z,48.47
2022-10-26T11:13:49.510Z,48.30
2022-10-26T11:16:24.540Z,48.20
2022-10-26T11:18:57.314Z,48.30
2022-10-26T11:21:29.253Z,48.67
2022-10-26T11:24:13.154Z,48.57
2022-10-26T11:26:46.339Z,48.73
2022-10-26T11:29:23.136Z,48.53
2022-10-26T11:31:56.832Z,48.40
2022-10-26T11:34:30.843Z,48.40
2022-10-26T11:37:05.984Z,48.37
2022-10-26T11:39:43.716Z,48.33
2022-10-26T11:42:22.464Z,48.50
2022-10-26T11:44:54.302Z,48.57
2022-10-26T11:47:34.679Z,48.43
2022-10-26T11:50:07.418Z,48.50
2022-10-26T11:52:41.931Z,48.33
2022-10-26T11:55:12.298Z,48.70
2022-10-26T11:57:41.878Z,48.53
2022-10-26T12:00:16.171Z,48.70
2022-10-26T12:02:49.479Z,48.87
2022-10-26T12:05:26.279Z,48.73
2022-10-26T12:07:57.577Z,48.33
2022-10-26T12:10:31.056Z,48.83
2022-10-26T12:13:05.337Z,48.80
2022-10-26T12:15:58.517Z,48.90
2022-10-26T12:18:53.970Z,48.37
2022-10-26T12:21:22.263Z,48.73
2022-10-26T12:23:58.309Z,48.53
2022-10-26T12:26:53.690Z,48.63
2022-10-26T12:29:31.313Z,48.37
2022-10-26T12:31:59.667Z,48.80
2022-10-26T12:35:00.307Z,48.63
2022-10-26T12:37:36.717Z,48.53
2022-10-26T12:40:49.912Z,48.83
2022-10-26T12:43:38.687Z,48.83
2022-10-26T12:46:43.439Z,48.80
2022-10-26T12:49:57.045Z,48.87
2022-10-26T12:52:52.828Z,48.67
2022-10-26T12:55:53.503Z,48.73
2022-10-26T12:58:42.459Z,48.57
2022-10-26T13:01:26.617Z,48.83
2022-10-26T13:04:06.267Z,48.93
2022-10-26T13:06:55.318Z,48.50
2022-10-26T13:09:28.553Z,49.07
2022-10-26T13:11:58.156Z,48.97
2022-10-26T13:14:30.194Z,48.60
2022-10-26T13:16:58.223Z,48.40
2022-10-26T13:19:28.276Z,48.83
2022-10-26T13:21:59.615Z,48.70
2022-10-26T13:24:31.478Z,48.67
2022-10-26T13:27:25.900Z,48.67
2022-10-26T13:30:38.531Z,48.87
2022-10-26T13:33:12.758Z,48.53
2022-10-26T13:35:42.650Z,48.27
2022-10-26T13:38:12.951Z,48.80
2022-10-26T13:40:42.661Z,49.00
2022-10-26T13:43:19.993Z,48.77
2022-10-26T13:45:55.459Z,48.67
2022-10-26T13:48:32.333Z,48.87
2022-10-26T13:51:03.816Z,48.30
2022-10-26T13:53:41.523Z,48.37
2022-10-26T13:56:20.535Z,48.63
2022-10-26T13:58:53.186Z,48.73
2022-10-26T14:01:23.027Z,48.67
2022-10-26T14:03:51.767Z,48.53
2022-10-26T14:06:27.243Z,49.07
2022-10-26T14:08:58.509Z,48.80
2022-10-26T14:11:34.207Z,48.37
2022-10-26T14:14:03.670Z,48.63
2022-10-26T14:16:34.335Z,48.73
2022-10-26T14:19:02.383Z,48.40
2022-10-26T14:21:30.760Z,48.83
2022-10-26T14:23:59.914Z,49.03
2022-10-26T14:26:30.659Z,48.37
2022-10-26T14:29:00.541Z,48.67
2022-10-26T14:31:30.174Z,48.50
2022-10-26T14:33:59.375Z,48.47
2022-10-26T14:36:30.803Z,49.00
2022-10-26T14:39:05.053Z,48.13
2022-10-26T14:41:37.015Z,48.77
2022-10-26T14:44:05.292Z,48.60
2022-10-26T14:46:36.195Z,48.30
2022-10-26T14:49:04.836Z,48.93
2022-10-26T14:51:36.449Z,48.83
2022-10-26T14:54:05.128Z,48.47
2022-10-26T14:56:41.884Z,48.70
2022-10-26T14:59:19.419Z,48.83
2022-10-26T15:01:56.113Z,48.63
2022-10-26T15:04:33.694Z,48.43
2022-10-26T15:07:19.924Z,48.63
2022-10-26T15:09:48.911Z,47.93
2022-10-26T15:12:26.429Z,48.50
2022-10-26T15:14:55.094Z,48.20
2022-10-26T15:17:27.630Z,48.20
2022-10-26T15:19:56.621Z,48.40
2022-10-26T15:22:32.151Z,48.00
2022-10-26T15:25:03.375Z,48.03
2022-10-26T15:27:32.783Z,48.57
2022-10-26T15:30:23.560Z,48.70
2022-10-26T15:32:52.563Z,48.13
2022-10-26T15:35:31.437Z,48.53
2022-10-26T15:38:00.893Z,48.40
2022-10-26T15:40:31.771Z,47.87
2022-10-26T15:43:02.189Z,48.03
2022-10-26T15:45:32.847Z,48.57
2022-10-26T15:48:16.608Z,48.10
2022-10-26T15:50:44.398Z,48.17
2022-10-26T15:53:18.068Z,48.70
2022-10-26T15:55:45.877Z,48.10
2022-10-26T15:58:16.299Z,48.80
2022-10-26T16:00:44.284Z,48.30
2022-10-26T16:03:15.577Z,48.20
2022-10-26T16:05:43.549Z,48.30
2022-10-26T16:08:17.811Z,48.20
2022-10-26T16:10:46.985Z,48.27
2022-10-26T16:13:16.532Z,48.00
2022-10-26T16:15:45.170Z,47.93
2022-10-26T16:18:12.956Z,48.30
2022-10-26T16:20:41.035Z,48.43
2022-10-26T16:23:08.968Z,48.77
2022-10-26T16:25:43.239Z,48.00
2022-10-26T16:28:13.059Z,48.53
2022-10-26T16:30:42.607Z,48.37
2022-10-26T16:33:10.423Z,48.13
2022-10-26T16:35:38.239Z,47.90
2022-10-26T16:38:05.983Z,47.83
2022-10-26T16:40:33.853Z,47.80
2022-10-26T16:43:01.632Z,47.73
2022-10-26T16:45:29.409Z,48.07
2022-10-26T16:47:58.584Z,48.07
2022-10-26T16:50:26.356Z,48.07
2022-10-26T16:52:54.133Z,48.00
2022-10-26T16:55:24.396Z,47.97
2022-10-26T16:57:52.632Z,48.37
2022-10-26T17:00:20.708Z,47.83
2022-10-26T17:02:48.813Z,48.20
2022-10-26T17:05:18.148Z,48.13
2022-10-26T17:07:48.238Z,48.07
2022-10-26T17:10:16.630Z,47.77
2022-10-26T17:12:44.371Z,47.63
2022-10-26T17:15:15.949Z,47.83
2022-10-26T17:17:46.726Z,48.07
2022-10-26T17:20:17.027Z,48.10
2022-10-26T17:22:46.144Z,47.63
2022-10-26T17:25:14.005Z,47.83
2022-10-26T17:27:46.336Z,48.00
2022-10-26T17:30:15.341Z,47.87
2022-10-26T17:32:43.127Z,47.47
2022-10-26T17:35:10.912Z,48.03
2022-10-26T17:37:40.778Z,47.43
2022-10-26T17:40:11.279Z,48.00
2022-10-26T17:42:40.238Z,47.67
2022-10-26T17:45:09.663Z,48.80
2022-10-26T17:47:37.414Z,47.63
2022-10-26T17:50:05.979Z,47.97
2022-10-26T17:52:33.804Z,48.10
2022-10-26T17:55:02.719Z,48.07
2022-10-26T17:57:33.399Z,47.77
2022-10-26T18:00:01.190Z,47.97
2022-10-26T18:02:29.793Z,47.83
2022-10-26T18:04:57.749Z,47.70
2022-10-26T18:07:25.550Z,47.90
2022-10-26T18:09:53.503Z,48.00
2022-10-26T18:12:22.284Z,48.20
2022-10-26T18:14:51.391Z,48.23
2022-10-26T18:17:19.252Z,47.93
2022-10-26T18:19:47.060Z,48.43
2022-10-26T18:22:14.838Z,47.90
2022-10-26T18:24:42.614Z,48.10
2022-10-26T18:27:10.374Z,47.47
2022-10-26T18:29:39.830Z,48.00
2022-10-26T18:32:09.170Z,48.43
2022-10-26T18:34:36.930Z,48.30
2022-10-26T18:37:04.689Z,47.60
2022-10-26T18:39:32.485Z,48.13
2022-10-26T18:42:00.436Z,47.90
2022-10-26T18:44:28.240Z,48.20
2022-10-26T18:46:55.983Z,48.40
2022-10-26T18:49:26.552Z,47.93
2022-10-26T18:51:54.321Z,48.07
2022-10-26T18:54:22.206Z,48.17
2022-10-26T18:56:49.953Z,48.73
2022-10-26T18:59:17.728Z,48.17
2022-10-26T19:01:47.027Z,47.90
2022-10-26T19:04:15.534Z,48.17
2022-10-26T19:06:47.335Z,47.73
2022-10-26T19:09:16.335Z,48.03
2022-10-26T19:11:44.252Z,49.37
2022-10-26T19:14:13.645Z,48.07
2022-10-26T19:16:46.434Z,48.13
2022-10-26T19:19:15.127Z,48.27
2022-10-26T19:21:42.936Z,47.87
2022-10-26T19:24:15.091Z,48.10
2022-10-26T19:26:43.979Z,48.03
2022-10-26T19:29:15.124Z,48.07
2022-10-26T19:31:44.525Z,47.83
2022-10-26T19:34:13.111Z,47.80
2022-10-26T19:36:44.078Z,47.93
2022-10-26T19:39:14.183Z,48.23
2022-10-26T19:41:42.056Z,48.00
2022-10-26T19:44:11.996Z,47.90
2022-10-26T19:46:40.113Z,48.30
2022-10-26T19:49:08.320Z,47.97
2022-10-26T19:51:36.273Z,47.83
2022-10-26T19:54:06.170Z,47.50
2022-10-26T19:56:36.766Z,47.90
2022-10-26T19:59:04.904Z,47.87
2022-10-26T20:01:32.979Z,47.90
2022-10-26T20:04:02.284Z,47.77
2022-10-26T20:06:30.672Z,47.97
2022-10-26T20:08:58.543Z,47.93
2022-10-26T20:11:26.379Z,47.60
2022-10-26T20:13:56.255Z,48.10
2022-10-26T20:16:24.011Z,47.90
2022-10-26T20:18:51.815Z,47.83
2022-10-26T20:21:19.582Z,47.83
2022-10-26T20:23:47.395Z,47.73
2022-10-26T20:26:18.732Z,47.73
2022-10-26T20:28:48.748Z,47.70
2022-10-26T20:31:17.896Z,47.57
2022-10-26T20:33:45.650Z,47.87
2022-10-26T20:36:13.426Z,47.93
2022-10-26T20:38:41.652Z,48.00
2022-10-26T20:41:12.020Z,48.23
2022-10-26T20:43:40.945Z,48.17
2022-10-26T20:46:12.147Z,47.63
2022-10-26T20:48:41.947Z,47.77
2022-10-26T20:51:17.262Z,48.10
2022-10-26T20:53:51.889Z,47.83
2022-10-26T20:56:23.632Z,48.23
2022-10-26T20:58:53.471Z,47.87
2022-10-26T21:01:25.220Z,48.13
2022-10-26T21:03:55.159Z,48.30
2022-10-26T21:06:23.417Z,47.77
2022-10-26T21:08:52.027Z,48.10
2022-10-26T21:11:20.886Z,48.07
2022-10-26T21:13:50.363Z,47.73
2022-10-26T21:16:18.921Z,47.80
2022-10-26T21:18:46.814Z,48.07
2022-10-26T21:21:16.296Z,47.57
2022-10-26T21:23:44.216Z,47.67
2022-10-26T21:26:12.056Z,47.90
2022-10-26T21:28:41.842Z,47.73
2022-10-26T21:31:11.637Z,48.30
2022-10-26T21:33:39.878Z,47.40
2022-10-26T21:36:11.421Z,48.00
2022-10-26T21:38:41.467Z,47.80
2022-10-26T21:41:11.200Z,47.83
2022-10-26T21:43:41.597Z,47.33
2022-10-26T21:46:09.656Z,47.67
2022-10-26T21:48:38.016Z,47.30
2022-10-26T21:51:07.772Z,47.70
2022-10-26T21:53:35.658Z,47.87
2022-10-26T21:56:07.770Z,48.23
2022-10-26T21:58:35.522Z,47.87
2022-10-26T22:01:07.813Z,47.50
2022-10-26T22:03:35.946Z,47.83
2022-10-26T22:06:04.757Z,47.60
2022-10-26T22:08:32.843Z,47.80
2022-10-26T22:11:09.550Z,47.90
2022-10-26T22:13:39.572Z,47.80
2022-10-26T22:16:10.498Z,47.30
2022-10-26T22:18:39.716Z,47.40
2022-10-26T22:21:09.008Z,47.57
2022-10-26T22:23:38.678Z,47.70
2022-10-26T22:26:10.068Z,47.73
2022-10-26T22:28:42.446Z,47.83
2022-10-26T22:31:13.414Z,47.83
2022-10-26T22:33:41.896Z,47.67
2022-10-26T22:36:11.484Z,47.93
2022-10-26T22:38:39.743Z,47.63
2022-10-26T22:41:10.395Z,47.93
2022-10-26T22:43:39.052Z,47.53
2022-10-26T22:46:08.318Z,47.50
2022-10-26T22:48:37.012Z,47.60
2022-10-26T22:51:09.476Z,47.67
2022-10-26T22:53:37.531Z,47.67
2022-10-26T22:56:06.306Z,47.23
2022-10-26T22:58:35.452Z,47.73
2022-10-26T23:01:04.760Z,47.53
2022-10-26T23:03:32.751Z,47.77
2022-10-26T23:06:00.738Z,47.70
2022-10-26T23:08:28.728Z,47.63
2022-10-26T23:11:00.796Z,47.60
2022-10-26T23:13:29.684Z,47.70
2022-10-26T23:16:05.810Z,47.73
2022-10-26T23:18:33.621Z,47.30
2022-10-26T23:21:02.013Z,47.90
2022-10-26T23:23:29.781Z,47.73
2022-10-26T23:26:01.311Z,47.67
2022-10-26T23:28:29.329Z,47.70
2022-10-26T23:30:58.538Z,47.53
2022-10-26T23:33:26.299Z,47.10
2022-10-26T23:35:54.568Z,47.43
2022-10-26T23:38:22.647Z,47.47
2022-10-26T23:40:52.143Z,47.27
2022-10-26T23:43:20.324Z,47.57
2022-10-26T23:45:48.448Z,47.23
2022-10-26T23:48:19.140Z,47.40
2022-10-26T23:50:48.726Z,47.50
2022-10-26T23:53:18.482Z,47.80
2022-10-26T23:55:47.446Z,47.57
2022-10-26T23:58:15.920Z,47.83
